createdAt,value
2019-01-27T00:00:45.820Z,4.55
2019-01-27T00:01:46.025Z,4.59
2019-01-27T00:02:46.086Z,4.62
2019-01-27T00:03:46.061Z,4.62
2019-01-27T00:04:52.736Z,4.56
2019-01-27T00:05:45.772Z,4.60
2019-01-27T00:06:47.017Z,4.59
2019-01-27T00:07:45.751Z,4.53
2019-01-27T00:08:47.122Z,4.58
2019-01-27T00:09:45.727Z,4.53
2019-01-27T00:10:45.924Z,4.59
2019-01-27T00:11:46.742Z,4.62
2019-01-27T00:12:45.698Z,4.52
2019-01-27T00:13:45.853Z,4.67
2019-01-27T00:14:45.673Z,4.63
2019-01-27T00:15:46.770Z,4.59
2019-01-27T00:16:45.919Z,4.59
2019-01-27T00:17:45.644Z,4.55
2019-01-27T00:18:45.780Z,4.59
2019-01-27T00:19:45.627Z,4.56
2019-01-27T00:20:46.695Z,4.58
2019-01-27T00:21:45.598Z,4.62
2019-01-27T00:22:45.607Z,4.67
2019-01-27T00:23:45.817Z,4.58
2019-01-27T00:24:45.592Z,4.60
2019-01-27T00:25:45.562Z,4.60
2019-01-27T00:26:45.611Z,4.67
2019-01-27T00:30:16.142Z,4.68
2019-01-27T00:31:16.079Z,4.63
2019-01-27T00:32:16.152Z,4.66
2019-01-27T00:33:16.062Z,4.60
2019-01-27T00:34:16.045Z,4.59
2019-01-27T00:35:18.233Z,4.67
2019-01-27T00:36:16.224Z,4.62
2019-01-27T00:37:16.018Z,4.62
2019-01-27T00:38:17.154Z,4.62
2019-01-27T00:39:15.994Z,4.59
2019-01-27T00:40:16.041Z,4.67
2019-01-27T00:41:16.165Z,4.58
2019-01-27T00:42:15.962Z,4.59
2019-01-27T00:43:17.110Z,4.66
2019-01-27T00:44:15.956Z,4.63
2019-01-27T00:45:17.170Z,4.62
2019-01-27T00:46:15.917Z,4.59
2019-01-27T00:47:17.050Z,4.63
2019-01-27T00:48:15.914Z,4.66
2019-01-27T00:49:18.051Z,4.60
2019-01-27T00:50:15.929Z,4.62
2019-01-27T00:51:15.867Z,4.68
2019-01-27T00:52:15.852Z,4.71
2019-01-27T00:53:16.951Z,4.68
2019-01-27T00:54:16.010Z,4.71
2019-01-27T00:55:16.082Z,4.63
2019-01-27T00:56:15.817Z,4.75
2019-01-27T00:57:16.853Z,4.73
2019-01-27T00:58:16.167Z,4.70
2019-01-27T00:59:15.776Z,4.71
2019-01-27T01:00:15.972Z,4.71
2019-01-27T01:01:15.762Z,4.74
2019-01-27T01:02:15.879Z,4.75
2019-01-27T01:03:15.789Z,4.67
2019-01-27T01:04:15.803Z,4.71
2019-01-27T01:05:15.717Z,4.67
2019-01-27T01:06:16.117Z,4.71
2019-01-27T01:07:15.797Z,4.80
2019-01-27T01:08:15.686Z,4.86
2019-01-27T01:09:15.680Z,4.66
2019-01-27T01:10:15.837Z,4.84
2019-01-27T01:11:15.658Z,4.78
2019-01-27T01:12:16.891Z,4.73
2019-01-27T01:13:15.667Z,4.78
2019-01-27T01:14:15.619Z,4.74
2019-01-27T01:15:15.778Z,4.78
2019-01-27T01:16:16.070Z,4.71
2019-01-27T01:17:17.724Z,4.73
2019-01-27T01:18:15.611Z,4.86
2019-01-27T01:19:15.577Z,4.80
2019-01-27T01:20:20.187Z,4.71
2019-01-27T01:21:15.702Z,4.77
2019-01-27T01:22:15.538Z,4.84
2019-01-27T01:23:15.719Z,4.80
2019-01-27T01:24:15.589Z,4.84
2019-01-27T01:25:15.525Z,4.87
2019-01-27T01:26:15.512Z,4.84
2019-01-27T01:27:15.652Z,4.82
2019-01-27T01:28:15.716Z,4.90
2019-01-27T01:29:15.650Z,4.86
2019-01-27T01:30:15.466Z,4.86
2019-01-27T01:31:15.526Z,4.89
2019-01-27T01:32:15.575Z,4.78
2019-01-27T01:33:15.429Z,4.82
2019-01-27T01:34:15.583Z,4.89
2019-01-27T01:35:15.399Z,4.82
2019-01-27T01:36:17.321Z,4.87
2019-01-27T01:37:15.384Z,4.84
2019-01-27T01:38:15.546Z,4.84
2019-01-27T01:39:15.367Z,4.87
2019-01-27T01:40:16.556Z,4.86
2019-01-27T01:41:15.416Z,4.78
2019-01-27T01:42:15.333Z,4.84
2019-01-27T01:43:15.324Z,4.78
2019-01-27T01:44:15.449Z,4.82
2019-01-27T01:45:15.298Z,4.74
2019-01-27T01:46:16.689Z,4.78
2019-01-27T01:47:15.278Z,4.86
2019-01-27T01:48:15.274Z,4.73
2019-01-27T01:49:15.483Z,4.73
2019-01-27T01:50:15.467Z,4.73
2019-01-27T01:51:15.302Z,4.78
2019-01-27T01:52:15.228Z,4.74
2019-01-27T01:53:15.286Z,4.74
2019-01-27T01:54:15.204Z,4.74
2019-01-27T01:55:15.419Z,4.77
2019-01-27T01:56:15.241Z,4.73
2019-01-27T01:57:16.559Z,4.80
2019-01-27T01:58:15.187Z,4.70
2019-01-27T01:59:15.160Z,4.75
2019-01-27T02:00:17.297Z,4.74
2019-01-27T02:01:15.162Z,4.71
2019-01-27T02:02:16.178Z,4.67
2019-01-27T02:03:15.186Z,4.67
2019-01-27T02:04:15.122Z,4.70
2019-01-27T02:05:15.255Z,4.77
2019-01-27T02:06:16.227Z,4.71
2019-01-27T02:07:15.076Z,4.67
2019-01-27T02:08:16.118Z,4.66
2019-01-27T02:09:15.072Z,4.66
2019-01-27T02:10:15.063Z,4.70
2019-01-27T02:11:15.204Z,4.73
2019-01-27T02:12:15.116Z,4.66
2019-01-27T02:13:15.098Z,4.66
2019-01-27T02:14:21.795Z,4.66
2019-01-27T02:15:14.996Z,4.63
2019-01-27T02:16:19.409Z,4.68
2019-01-27T02:17:15.086Z,4.68
2019-01-27T02:18:14.985Z,4.62
2019-01-27T02:19:15.081Z,4.67
2019-01-27T02:20:14.977Z,4.66
2019-01-27T02:21:14.940Z,4.62
2019-01-27T02:22:30.422Z,4.63
2019-01-27T02:23:21.853Z,4.70
2019-01-27T02:24:14.899Z,4.62
2019-01-27T02:25:15.007Z,4.74
2019-01-27T02:26:14.879Z,4.73
2019-01-27T02:27:14.940Z,4.66
2019-01-27T02:28:14.900Z,4.77
2019-01-27T02:29:14.842Z,4.70
2019-01-27T02:30:21.802Z,4.63
2019-01-27T02:31:14.822Z,4.67
2019-01-27T02:32:16.980Z,4.59
2019-01-27T02:33:14.808Z,4.63
2019-01-27T02:34:14.838Z,4.71
2019-01-27T02:35:14.788Z,4.67
2019-01-27T02:36:14.854Z,4.71
2019-01-27T02:37:14.776Z,4.70
2019-01-27T02:38:14.812Z,4.70
2019-01-27T02:39:14.749Z,4.63
2019-01-27T02:40:14.782Z,4.70
2019-01-27T02:41:15.890Z,4.68
2019-01-27T02:42:14.785Z,4.67
2019-01-27T02:43:14.704Z,4.68
2019-01-27T02:44:14.694Z,4.68
2019-01-27T02:45:14.709Z,4.70
2019-01-27T02:46:14.734Z,4.68
2019-01-27T02:47:30.270Z,4.71
2019-01-27T02:48:26.368Z,4.66
2019-01-27T02:49:14.640Z,4.68
2019-01-27T02:50:14.647Z,4.67
2019-01-27T02:51:14.746Z,4.67
2019-01-27T02:52:14.613Z,4.71
2019-01-27T02:53:14.653Z,4.62
2019-01-27T02:54:14.584Z,4.78
2019-01-27T02:55:14.595Z,4.70
2019-01-27T02:56:14.670Z,4.73
2019-01-27T02:57:14.619Z,4.67
2019-01-27T02:58:16.622Z,4.62
2019-01-27T02:59:14.543Z,4.67
2019-01-27T03:00:14.664Z,4.67
2019-01-27T03:01:14.519Z,4.66
2019-01-27T03:02:15.636Z,4.71
2019-01-27T03:03:14.493Z,4.67
2019-01-27T03:04:14.522Z,4.67
2019-01-27T03:05:14.475Z,4.63
2019-01-27T03:06:14.537Z,4.73
2019-01-27T03:07:14.605Z,4.68
2019-01-27T03:08:14.544Z,4.71
2019-01-27T03:09:14.446Z,4.70
2019-01-27T03:10:15.497Z,4.66
2019-01-27T03:11:14.406Z,4.71
2019-01-27T03:12:15.493Z,4.71
2019-01-27T03:13:14.539Z,4.71
2019-01-27T03:14:14.482Z,4.70
2019-01-27T03:15:14.373Z,4.77
2019-01-27T03:16:15.518Z,4.84
2019-01-27T03:17:14.351Z,4.75
2019-01-27T03:18:14.402Z,4.75
2019-01-27T03:19:14.327Z,4.75
2019-01-27T03:20:22.302Z,4.77
2019-01-27T03:21:14.314Z,4.67
2019-01-27T03:22:14.294Z,4.73
2019-01-27T03:23:14.299Z,4.77
2019-01-27T03:24:14.439Z,4.73
2019-01-27T03:25:14.267Z,4.73
2019-01-27T03:26:15.282Z,4.77
2019-01-27T03:27:14.249Z,4.78
2019-01-27T03:28:14.231Z,4.82
2019-01-27T03:29:21.337Z,4.80
2019-01-27T03:30:14.290Z,4.80
2019-01-27T03:31:16.237Z,4.77
2019-01-27T03:32:14.197Z,4.78
2019-01-27T03:33:14.300Z,4.73
2019-01-27T03:34:14.178Z,4.73
2019-01-27T03:35:14.311Z,4.78
2019-01-27T03:36:14.187Z,4.77
2019-01-27T03:37:15.236Z,4.86
2019-01-27T03:38:14.133Z,4.84
2019-01-27T03:39:14.117Z,4.75
2019-01-27T03:40:20.262Z,4.73
2019-01-27T03:41:14.139Z,4.78
2019-01-27T03:42:14.090Z,4.70
2019-01-27T03:43:14.153Z,4.71
2019-01-27T03:44:14.068Z,4.77
2019-01-27T03:45:14.234Z,4.77
2019-01-27T03:46:14.174Z,4.70
2019-01-27T03:47:14.041Z,4.78
2019-01-27T03:48:15.108Z,4.75
2019-01-27T03:49:14.031Z,4.80
2019-01-27T03:50:14.019Z,4.71
2019-01-27T03:51:15.110Z,4.67
2019-01-27T03:52:14.001Z,4.67
2019-01-27T03:53:14.003Z,4.78
2019-01-27T03:54:14.017Z,4.73
2019-01-27T03:55:18.678Z,4.84
2019-01-27T03:56:13.950Z,4.82
2019-01-27T03:57:13.967Z,4.75
2019-01-27T03:58:14.042Z,4.71
2019-01-27T03:59:13.937Z,4.68
2019-01-27T04:00:14.977Z,4.71
2019-01-27T04:01:13.897Z,4.78
2019-01-27T04:02:13.986Z,4.67
2019-01-27T04:03:15.919Z,4.82
2019-01-27T04:04:14.985Z,4.75
2019-01-27T04:05:13.885Z,4.75
2019-01-27T04:06:13.846Z,4.70
2019-01-27T04:07:13.824Z,4.73
2019-01-27T04:08:13.828Z,4.74
2019-01-27T04:09:13.907Z,4.75
2019-01-27T04:10:13.860Z,4.74
2019-01-27T04:11:13.822Z,4.70
2019-01-27T04:12:13.785Z,4.77
2019-01-27T04:13:13.779Z,4.71
2019-01-27T04:14:13.767Z,4.75
2019-01-27T04:15:13.949Z,4.77
2019-01-27T04:16:13.882Z,4.73
2019-01-27T04:17:13.755Z,4.71
2019-01-27T04:18:13.718Z,4.75
2019-01-27T04:19:13.787Z,4.71
2019-01-27T04:20:13.759Z,4.68
2019-01-27T04:21:13.879Z,4.75
2019-01-27T04:22:13.690Z,4.67
2019-01-27T04:23:13.707Z,4.74
2019-01-27T04:24:13.798Z,4.68
2019-01-27T04:25:13.659Z,4.68
2019-01-27T04:26:20.571Z,4.74
2019-01-27T04:27:13.621Z,4.71
2019-01-27T04:28:13.721Z,4.71
2019-01-27T04:29:13.602Z,4.70
2019-01-27T04:30:13.597Z,4.63
2019-01-27T04:31:13.745Z,4.70
2019-01-27T04:32:13.712Z,4.68
2019-01-27T04:33:13.656Z,4.68
2019-01-27T04:34:13.560Z,4.70
2019-01-27T04:35:13.547Z,4.67
2019-01-27T04:36:13.585Z,4.70
2019-01-27T04:37:14.598Z,4.67
2019-01-27T04:38:13.508Z,4.66
2019-01-27T04:39:13.583Z,4.66
2019-01-27T04:40:14.615Z,4.70
2019-01-27T04:41:13.479Z,4.71
2019-01-27T04:42:13.520Z,4.67
2019-01-27T04:43:13.456Z,4.60
2019-01-27T04:44:13.644Z,4.70
2019-01-27T04:45:13.460Z,4.73
2019-01-27T04:46:13.426Z,4.73
2019-01-27T04:47:13.417Z,4.70
2019-01-27T04:48:13.442Z,4.67
2019-01-27T04:49:13.521Z,4.66
2019-01-27T04:50:13.456Z,4.73
2019-01-27T04:51:13.384Z,4.77
2019-01-27T04:52:13.446Z,4.78
2019-01-27T04:53:14.487Z,4.66
2019-01-27T04:54:13.353Z,4.63
2019-01-27T04:55:13.390Z,4.68
2019-01-27T04:56:13.387Z,4.75
2019-01-27T04:57:13.314Z,4.80
2019-01-27T04:58:13.467Z,4.80
2019-01-27T04:59:13.414Z,4.71
2019-01-27T05:00:13.283Z,4.71
2019-01-27T05:01:13.318Z,4.73
2019-01-27T05:02:13.261Z,4.78
2019-01-27T05:03:13.311Z,4.67
2019-01-27T05:04:13.243Z,4.75
2019-01-27T05:05:13.359Z,4.86
2019-01-27T05:06:13.321Z,4.77
2019-01-27T05:07:15.289Z,4.77
2019-01-27T05:08:14.274Z,4.75
2019-01-27T05:09:13.239Z,4.77
2019-01-27T05:10:13.380Z,4.75
2019-01-27T05:11:13.322Z,4.70
2019-01-27T05:12:19.852Z,4.73
2019-01-27T05:13:13.152Z,4.84
2019-01-27T05:14:13.139Z,4.74
2019-01-27T05:15:13.199Z,4.77
2019-01-27T05:16:13.278Z,4.73
2019-01-27T05:17:13.219Z,4.73
2019-01-27T05:18:13.107Z,4.71
2019-01-27T05:19:13.195Z,4.74
2019-01-27T05:20:13.103Z,4.80
2019-01-27T05:21:13.142Z,4.74
2019-01-27T05:22:13.050Z,4.62
2019-01-27T05:23:13.155Z,4.74
2019-01-27T05:24:13.100Z,4.75
2019-01-27T05:25:13.038Z,4.77
2019-01-27T05:26:16.240Z,4.74
2019-01-27T05:27:12.999Z,4.80
2019-01-27T05:28:13.081Z,4.82
2019-01-27T05:29:12.979Z,4.73
2019-01-27T05:30:13.031Z,4.80
2019-01-27T05:31:12.994Z,4.68
2019-01-27T05:32:12.960Z,4.75
2019-01-27T05:33:13.012Z,4.68
2019-01-27T05:34:12.934Z,4.70
2019-01-27T05:35:15.163Z,4.73
2019-01-27T05:36:12.967Z,4.80
2019-01-27T05:37:12.935Z,4.71
2019-01-27T05:38:12.891Z,4.71
2019-01-27T05:39:14.882Z,4.78
2019-01-27T05:40:14.570Z,4.62
2019-01-27T05:41:12.917Z,4.71
2019-01-27T05:42:12.850Z,4.67
2019-01-27T05:43:13.883Z,4.63
2019-01-27T05:44:12.832Z,4.68
2019-01-27T05:45:14.009Z,4.71
2019-01-27T05:46:12.810Z,4.68
2019-01-27T05:47:12.895Z,4.68
2019-01-27T05:48:12.850Z,4.77
2019-01-27T05:49:13.818Z,4.71
2019-01-27T05:50:12.763Z,4.71
2019-01-27T05:51:13.831Z,4.75
2019-01-27T05:52:19.280Z,4.73
2019-01-27T05:53:14.845Z,4.77
2019-01-27T05:54:12.839Z,4.63
2019-01-27T05:55:12.717Z,4.71
2019-01-27T05:56:14.890Z,4.71
2019-01-27T05:57:12.685Z,4.70
2019-01-27T05:58:12.761Z,4.74
2019-01-27T05:59:12.689Z,4.77
2019-01-27T06:00:12.766Z,4.73
2019-01-27T06:01:16.144Z,4.71
2019-01-27T06:02:12.685Z,4.67
2019-01-27T06:03:12.636Z,4.71
2019-01-27T06:04:12.699Z,4.77
2019-01-27T06:05:12.611Z,4.70
2019-01-27T06:06:19.262Z,4.68
2019-01-27T06:07:12.587Z,4.73
2019-01-27T06:08:12.599Z,4.67
2019-01-27T06:09:12.563Z,4.74
2019-01-27T06:10:13.646Z,4.70
2019-01-27T06:11:12.605Z,4.73
2019-01-27T06:12:12.651Z,4.77
2019-01-27T06:13:12.580Z,4.75
2019-01-27T06:14:12.517Z,4.67
2019-01-27T06:15:15.536Z,4.70
2019-01-27T06:16:12.495Z,4.74
2019-01-27T06:17:13.586Z,4.73
2019-01-27T06:18:12.479Z,4.67
2019-01-27T06:19:13.597Z,4.68
2019-01-27T06:20:12.535Z,4.70
2019-01-27T06:21:14.537Z,4.71
2019-01-27T06:22:12.433Z,4.67
2019-01-27T06:23:20.278Z,4.71
2019-01-27T06:24:12.416Z,4.73
2019-01-27T06:25:12.492Z,4.73
2019-01-27T06:26:12.431Z,4.73
2019-01-27T06:27:12.394Z,4.71
2019-01-27T06:28:12.442Z,4.67
2019-01-27T06:29:12.367Z,4.74
2019-01-27T06:30:12.420Z,4.67
2019-01-27T06:31:12.353Z,4.80
2019-01-27T06:32:12.325Z,4.75
2019-01-27T06:33:12.372Z,4.66
2019-01-27T06:34:12.313Z,4.68
2019-01-27T06:35:13.200Z,4.71
2019-01-27T06:36:12.292Z,4.68
2019-01-27T06:37:13.302Z,4.66
2019-01-27T06:38:12.270Z,4.70
2019-01-27T06:39:12.304Z,4.63
2019-01-27T06:40:12.338Z,4.68
2019-01-27T06:41:12.244Z,4.68
2019-01-27T06:42:12.230Z,4.68
2019-01-27T06:43:12.231Z,4.78
2019-01-27T06:44:12.201Z,4.70
2019-01-27T06:45:12.345Z,4.84
2019-01-27T06:46:12.217Z,4.70
2019-01-27T06:47:12.269Z,4.82
2019-01-27T06:48:12.155Z,4.77
2019-01-27T06:49:12.267Z,4.71
2019-01-27T06:50:12.157Z,4.74
2019-01-27T06:51:12.180Z,4.77
2019-01-27T06:52:12.286Z,4.68
2019-01-27T06:53:12.134Z,4.87
2019-01-27T06:54:12.197Z,4.78
2019-01-27T06:55:12.090Z,4.78
2019-01-27T06:56:18.868Z,4.84
2019-01-27T06:57:12.198Z,4.75
2019-01-27T06:58:12.839Z,4.80
2019-01-27T06:59:12.048Z,4.78
2019-01-27T07:00:12.134Z,4.77
2019-01-27T07:01:12.085Z,4.74
2019-01-27T07:02:12.044Z,4.80
2019-01-27T07:03:12.064Z,4.74
2019-01-27T07:04:11.989Z,4.80
2019-01-27T07:05:12.062Z,4.63
2019-01-27T07:06:12.159Z,4.67
2019-01-27T07:07:12.984Z,4.78
2019-01-27T07:08:13.004Z,4.73
2019-01-27T07:09:11.948Z,4.80
2019-01-27T07:10:12.999Z,4.84
2019-01-27T07:11:11.985Z,4.84
2019-01-27T07:12:12.018Z,4.80
2019-01-27T07:13:12.080Z,4.82
2019-01-27T07:14:11.895Z,4.75
2019-01-27T07:15:18.786Z,4.80
2019-01-27T07:16:11.894Z,4.78
2019-01-27T07:17:11.939Z,4.87
2019-01-27T07:18:12.510Z,4.86
2019-01-27T07:19:11.839Z,4.78
2019-01-27T07:20:11.836Z,4.78
2019-01-27T07:21:11.859Z,4.84
2019-01-27T07:22:12.959Z,4.82
2019-01-27T07:23:12.893Z,4.86
2019-01-27T07:24:11.846Z,4.82
2019-01-27T07:25:11.797Z,4.82
2019-01-27T07:26:11.990Z,4.87
2019-01-27T07:27:11.761Z,4.80
2019-01-27T07:28:12.820Z,4.78
2019-01-27T07:29:11.735Z,4.84
2019-01-27T07:30:11.733Z,4.87
2019-01-27T07:31:11.816Z,4.92
2019-01-27T07:32:11.710Z,4.92
2019-01-27T07:33:12.845Z,4.89
2019-01-27T07:34:11.744Z,4.84
2019-01-27T07:35:11.740Z,4.90
2019-01-27T07:36:11.678Z,4.92
2019-01-27T07:37:11.853Z,4.87
2019-01-27T07:38:11.698Z,4.86
2019-01-27T07:39:11.768Z,4.92
2019-01-27T07:40:11.622Z,4.89
2019-01-27T07:41:11.615Z,4.89
2019-01-27T07:42:11.751Z,4.92
2019-01-27T07:43:11.705Z,4.89
2019-01-27T07:44:11.586Z,4.90
2019-01-27T07:45:11.599Z,4.93
2019-01-27T07:46:11.567Z,4.89
2019-01-27T07:47:11.713Z,4.90
2019-01-27T07:48:12.727Z,4.92
2019-01-27T07:49:11.629Z,4.94
2019-01-27T07:50:11.524Z,5.00
2019-01-27T07:51:11.534Z,4.99
2019-01-27T07:52:11.496Z,4.86
2019-01-27T07:53:11.659Z,4.90
2019-01-27T07:54:11.479Z,4.89
2019-01-27T07:55:12.586Z,5.00
2019-01-27T07:56:12.318Z,4.89
2019-01-27T07:57:11.452Z,4.90
2019-01-27T07:58:11.441Z,4.89
2019-01-27T07:59:11.532Z,4.96
2019-01-27T08:00:11.477Z,4.96
2019-01-27T08:01:11.499Z,4.90
2019-01-27T08:02:11.397Z,4.90
2019-01-27T08:03:12.086Z,4.86
2019-01-27T08:04:14.588Z,4.87
2019-01-27T08:05:11.361Z,4.89
2019-01-27T08:06:13.387Z,4.90
2019-01-27T08:07:11.449Z,4.89
2019-01-27T08:08:11.440Z,4.93
2019-01-27T08:09:11.326Z,4.97
2019-01-27T08:10:11.349Z,4.93
2019-01-27T08:11:11.307Z,4.90
2019-01-27T08:12:12.489Z,4.96
2019-01-27T08:13:11.278Z,4.93
2019-01-27T08:14:11.307Z,4.94
2019-01-27T08:15:11.250Z,4.94
2019-01-27T08:16:11.289Z,4.96
2019-01-27T08:17:11.301Z,4.96
2019-01-27T08:18:12.424Z,4.97
2019-01-27T08:19:11.218Z,5.05
2019-01-27T08:20:11.212Z,5.08
2019-01-27T08:21:21.559Z,5.10
2019-01-27T08:22:11.200Z,5.10
2019-01-27T08:23:11.231Z,5.12
2019-01-27T08:24:11.166Z,5.15
2019-01-27T08:25:11.152Z,5.10
2019-01-27T08:26:11.325Z,5.07
2019-01-27T08:27:11.255Z,5.05
2019-01-27T08:28:11.121Z,5.18
2019-01-27T08:29:11.271Z,5.12
2019-01-27T08:30:11.108Z,5.23
2019-01-27T08:31:11.090Z,5.23
2019-01-27T08:32:11.192Z,5.20
2019-01-27T08:33:11.062Z,5.23
2019-01-27T08:34:11.401Z,5.23
2019-01-27T08:35:18.336Z,5.20
2019-01-27T08:36:13.260Z,5.20
2019-01-27T08:37:11.033Z,5.17
2019-01-27T08:38:11.118Z,5.21
2019-01-27T08:39:11.004Z,5.23
2019-01-27T08:40:13.078Z,5.20
2019-01-27T08:41:11.110Z,5.35
2019-01-27T08:42:10.976Z,5.28
2019-01-27T08:43:10.967Z,5.33
2019-01-27T08:44:11.055Z,5.33
2019-01-27T08:45:10.942Z,5.36
2019-01-27T08:46:10.968Z,5.30
2019-01-27T08:47:10.926Z,5.41
2019-01-27T08:48:10.909Z,5.33
2019-01-27T08:49:12.107Z,5.36
2019-01-27T08:50:12.169Z,5.33
2019-01-27T08:51:10.997Z,5.41
2019-01-27T08:52:10.867Z,5.38
2019-01-27T08:53:11.907Z,5.33
2019-01-27T08:54:10.847Z,5.38
2019-01-27T08:55:10.932Z,5.39
2019-01-27T08:56:10.830Z,5.33
2019-01-27T08:57:10.935Z,5.33
2019-01-27T08:58:10.880Z,5.30
2019-01-27T08:59:10.796Z,5.35
2019-01-27T09:00:10.795Z,5.33
2019-01-27T09:01:10.853Z,5.36
2019-01-27T09:02:10.950Z,5.36
2019-01-27T09:03:10.867Z,5.33
2019-01-27T09:04:10.754Z,5.35
2019-01-27T09:05:10.733Z,5.28
2019-01-27T09:06:11.810Z,5.41
2019-01-27T09:07:10.786Z,5.36
2019-01-27T09:08:11.718Z,5.38
2019-01-27T09:09:10.700Z,5.36
2019-01-27T09:10:11.739Z,5.44
2019-01-27T09:11:10.674Z,5.35
2019-01-27T09:12:11.861Z,5.39
2019-01-27T09:13:11.369Z,5.44
2019-01-27T09:14:10.734Z,5.44
2019-01-27T09:15:10.638Z,5.44
2019-01-27T09:16:10.674Z,5.44
2019-01-27T09:17:10.609Z,5.47
2019-01-27T09:18:11.393Z,5.41
2019-01-27T09:19:10.585Z,5.44
2019-01-27T09:20:11.603Z,5.39
2019-01-27T09:21:19.142Z,5.41
2019-01-27T09:22:13.642Z,5.46
2019-01-27T09:23:10.542Z,5.46
2019-01-27T09:24:10.595Z,5.43
2019-01-27T09:25:10.534Z,5.47
2019-01-27T09:26:19.320Z,5.41
2019-01-27T09:27:10.502Z,5.48
2019-01-27T09:28:10.504Z,5.54
2019-01-27T09:29:10.526Z,5.56
2019-01-27T09:30:10.472Z,5.61
2019-01-27T09:31:10.638Z,5.53
2019-01-27T09:32:10.453Z,5.57
2019-01-27T09:33:10.553Z,5.53
2019-01-27T09:34:13.269Z,5.56
2019-01-27T09:35:10.496Z,5.54
2019-01-27T09:36:18.214Z,5.56
2019-01-27T09:37:10.475Z,5.46
2019-01-27T09:38:10.394Z,5.44
2019-01-27T09:40:35.013Z,5.56
2019-01-27T09:51:21.895Z,5.50
2019-01-27T09:52:05.102Z,5.41
2019-01-27T09:53:05.089Z,5.48
2019-01-27T09:54:35.360Z,5.59
2019-01-27T09:55:05.089Z,5.53
2019-01-27T09:56:05.079Z,5.46
2019-01-27T09:57:05.050Z,5.43
2019-01-27T09:58:05.895Z,5.43
2019-01-27T09:59:06.590Z,5.59
2019-01-27T10:00:05.087Z,5.43
2019-01-27T10:01:05.013Z,5.43
2019-01-27T10:02:05.104Z,5.36
2019-01-27T10:03:04.999Z,5.46
2019-01-27T10:04:06.136Z,5.39
2019-01-27T10:05:04.974Z,5.41
2019-01-27T10:06:05.025Z,5.46
2019-01-27T10:07:05.277Z,5.39
2019-01-27T10:08:05.375Z,5.47
2019-01-27T10:09:07.281Z,5.47
2019-01-27T10:10:04.945Z,5.44
2019-01-27T10:11:04.906Z,5.38
2019-01-27T10:12:05.068Z,5.30
2019-01-27T10:13:04.923Z,5.32
2019-01-27T10:14:04.876Z,5.36
2019-01-27T10:15:04.865Z,5.33
2019-01-27T10:16:04.884Z,5.30
2019-01-27T10:17:13.285Z,5.33
2019-01-27T10:18:05.001Z,5.33
2019-01-27T10:19:04.843Z,5.38
2019-01-27T10:20:04.814Z,5.32
2019-01-27T10:21:05.840Z,5.35
2019-01-27T10:22:04.815Z,5.30
2019-01-27T10:23:06.368Z,5.33
2019-01-27T10:24:04.769Z,5.32
2019-01-27T10:25:06.891Z,5.29
2019-01-27T10:26:04.752Z,5.36
2019-01-27T10:27:04.749Z,5.35
2019-01-27T10:28:04.727Z,5.30
2019-01-27T10:29:04.772Z,5.38
2019-01-27T10:30:16.382Z,5.32
2019-01-27T10:31:04.691Z,5.29
2019-01-27T10:32:12.028Z,5.33
2019-01-27T10:33:04.683Z,5.35
2019-01-27T10:34:04.722Z,5.30
2019-01-27T10:35:04.695Z,5.33
2019-01-27T10:36:04.649Z,5.29
2019-01-27T10:37:11.863Z,5.35
2019-01-27T10:38:05.852Z,5.26
2019-01-27T10:39:04.670Z,5.36
2019-01-27T10:40:09.131Z,5.36
2019-01-27T10:41:05.585Z,5.38
2019-01-27T10:42:04.636Z,5.33
2019-01-27T10:44:22.659Z,5.29
2019-01-27T10:45:16.732Z,5.32
2019-01-27T10:46:16.242Z,5.30
2019-01-27T10:47:20.119Z,5.33
2019-01-27T10:48:16.352Z,5.39
2019-01-27T10:49:16.135Z,5.35
2019-01-27T10:50:16.928Z,5.39
2019-01-27T10:52:16.544Z,5.35
2019-01-27T10:53:20.939Z,5.38
2019-01-27T10:54:16.151Z,5.36
2019-01-27T10:55:16.170Z,5.35
2019-01-27T10:56:30.252Z,5.35
2019-01-27T10:57:16.189Z,5.30
2019-01-27T10:58:16.377Z,5.35
2019-01-27T10:59:16.071Z,5.41
2019-01-27T11:00:16.717Z,5.46
2019-01-27T11:01:19.430Z,5.44
2019-01-27T11:02:16.164Z,5.46
2019-01-27T11:03:23.643Z,5.44
2019-01-27T11:04:16.152Z,5.41
2019-01-27T11:05:17.123Z,5.41
2019-01-27T11:06:22.763Z,5.47
2019-01-27T11:07:18.410Z,5.44
2019-01-27T11:08:16.194Z,5.53
2019-01-27T11:09:17.861Z,5.39
2019-01-27T11:10:18.221Z,5.44
2019-01-27T11:11:16.061Z,5.44
2019-01-27T11:12:15.975Z,5.51
2019-01-27T11:13:19.021Z,5.50
2019-01-27T11:14:17.507Z,5.41
2019-01-27T11:15:15.996Z,5.41
2019-01-27T11:16:16.499Z,5.43
2019-01-27T11:17:15.975Z,5.44
2019-01-27T11:18:16.034Z,5.51
2019-01-27T11:19:23.848Z,5.41
2019-01-27T11:20:16.003Z,5.43
2019-01-27T11:21:16.217Z,5.44
2019-01-27T11:22:15.909Z,5.41
2019-01-27T11:23:15.789Z,5.39
2019-01-27T11:24:15.832Z,5.41
2019-01-27T11:25:15.837Z,5.46
2019-01-27T11:26:16.307Z,5.44
2019-01-27T11:27:16.907Z,5.43
2019-01-27T11:28:15.814Z,5.47
2019-01-27T11:29:16.137Z,5.44
2019-01-27T11:30:15.759Z,5.39
2019-01-27T11:31:17.421Z,5.39
2019-01-27T11:32:15.809Z,5.38
2019-01-27T11:33:15.748Z,5.33
2019-01-27T11:34:16.155Z,5.32
2019-01-27T11:35:16.437Z,5.38
2019-01-27T11:36:16.755Z,5.36
2019-01-27T11:37:22.628Z,5.38
2019-01-27T11:38:16.533Z,5.41
2019-01-27T11:39:15.817Z,5.39
2019-01-27T11:40:15.718Z,5.33
2019-01-27T11:41:17.837Z,5.33
2019-01-27T11:42:16.403Z,5.29
2019-01-27T11:43:16.991Z,5.36
2019-01-27T11:44:16.776Z,5.38
2019-01-27T11:45:17.192Z,5.32
2019-01-27T11:46:15.914Z,5.32
2019-01-27T11:47:17.800Z,5.33
2019-01-27T11:52:02.024Z,5.44
2019-01-27T11:52:59.657Z,5.36
2019-01-27T11:54:01.270Z,5.44
2019-01-27T11:54:59.307Z,5.41
2019-01-27T11:56:00.337Z,5.38
2019-01-27T11:56:59.613Z,5.44
2019-01-27T11:57:59.635Z,5.39
2019-01-27T11:58:59.352Z,5.47
2019-01-27T11:59:59.442Z,5.46
2019-01-27T12:01:00.248Z,5.46
2019-01-27T12:01:59.700Z,5.46
2019-01-27T12:02:59.750Z,5.46
2019-01-27T12:03:59.213Z,5.48
2019-01-27T12:05:00.338Z,5.38
2019-01-27T12:05:59.849Z,5.46
2019-01-27T12:07:07.743Z,5.46
2019-01-27T12:07:59.932Z,5.36
2019-01-27T12:09:07.523Z,5.41
2019-01-27T12:09:59.291Z,5.39
2019-01-27T12:11:00.919Z,5.39
2019-01-27T12:11:59.592Z,5.38
2019-01-27T12:13:00.625Z,5.44
2019-01-27T12:13:59.530Z,5.46
2019-01-27T12:14:59.357Z,5.39
2019-01-27T12:16:00.013Z,5.35
2019-01-27T12:16:59.095Z,5.33
2019-01-27T12:17:59.201Z,5.43
2019-01-27T12:18:59.128Z,5.43
2019-01-27T12:20:00.555Z,5.48
2019-01-27T12:20:59.174Z,5.39
2019-01-27T12:21:59.450Z,5.44
2019-01-27T12:22:59.057Z,5.39
2019-01-27T12:24:00.571Z,5.44
2019-01-27T12:24:59.167Z,5.41
2019-01-27T12:25:59.164Z,5.46
2019-01-27T12:26:59.681Z,5.43
2019-01-27T12:27:59.042Z,5.38
2019-01-27T12:28:58.992Z,5.46
2019-01-27T12:29:59.034Z,5.46
2019-01-27T12:30:59.139Z,5.41
2019-01-27T12:31:58.931Z,5.44
2019-01-27T12:32:59.130Z,5.48
2019-01-27T12:33:59.753Z,5.47
2019-01-27T12:34:58.958Z,5.46
2019-01-27T12:35:59.544Z,5.41
2019-01-27T12:37:02.015Z,5.41
2019-01-27T12:37:59.049Z,5.39
2019-01-27T12:38:59.799Z,5.43
2019-01-27T12:40:00.012Z,5.43
2019-01-27T12:41:00.008Z,5.46
2019-01-27T12:42:01.519Z,5.41
2019-01-27T12:42:58.976Z,5.36
2019-01-27T12:43:59.883Z,5.44
2019-01-27T12:44:59.034Z,5.36
2019-01-27T12:46:00.199Z,5.43
2019-01-27T12:46:59.640Z,5.44
2019-01-27T12:48:00.022Z,5.43
2019-01-27T12:49:00.331Z,5.47
2019-01-27T12:50:21.137Z,5.44
2019-01-27T12:50:59.096Z,5.38
2019-01-27T12:51:58.816Z,5.43
2019-01-27T12:52:59.840Z,5.44
2019-01-27T12:54:00.524Z,5.43
2019-01-27T12:55:00.480Z,5.41
2019-01-27T12:55:59.344Z,5.43
2019-01-27T12:57:01.708Z,5.48
2019-01-27T12:57:58.741Z,5.53
2019-01-27T12:58:59.778Z,5.51
2019-01-27T13:00:00.346Z,5.48
2019-01-27T13:00:58.842Z,5.59
2019-01-27T13:01:59.303Z,5.50
2019-01-27T13:02:59.145Z,5.59
2019-01-27T13:03:59.681Z,5.51
2019-01-27T13:04:59.685Z,5.50
2019-01-27T13:05:58.597Z,5.59
2019-01-27T13:06:58.640Z,5.54
2019-01-27T13:07:58.778Z,5.56
2019-01-27T13:09:00.735Z,5.43
2019-01-27T13:09:58.896Z,5.47
2019-01-27T13:10:59.801Z,5.43
2019-01-27T13:11:58.617Z,5.39
2019-01-27T13:13:01.066Z,5.48
2019-01-27T13:13:58.659Z,5.48
2019-01-27T13:15:00.018Z,5.48
2019-01-27T13:15:58.814Z,5.39
2019-01-27T13:16:59.837Z,5.43
2019-01-27T13:17:58.456Z,5.46
2019-01-27T13:18:59.756Z,5.39
2019-01-27T13:19:58.562Z,5.44
2019-01-27T13:21:07.416Z,5.44
2019-01-27T13:21:58.957Z,5.36
2019-01-27T13:22:58.608Z,5.46
2019-01-27T13:23:59.640Z,5.44
2019-01-27T13:24:59.561Z,5.48
2019-01-27T13:25:58.529Z,5.53
2019-01-27T13:26:58.656Z,5.47
2019-01-27T13:27:58.544Z,5.57
2019-01-27T13:28:59.676Z,5.48
2019-01-27T13:29:58.374Z,5.56
2019-01-27T13:30:58.426Z,5.53
2019-01-27T13:31:59.058Z,5.57
2019-01-27T13:33:03.235Z,5.54
2019-01-27T13:33:58.323Z,5.46
2019-01-27T13:34:58.859Z,5.59
2019-01-27T13:35:58.335Z,5.46
2019-01-27T13:36:58.390Z,5.46
2019-01-27T13:37:58.329Z,5.59